sensor_id;sensor_type;location;lat;lon;timestamp;P1;durP1;ratioP1;P2;durP2;ratioP2
38222;SDS011;24024;51.186;6.458;2023-07-13T00:00:42;6.85;;;1.70;;
38222;SDS011;24024;51.186;6.458;2023-07-13T00:03:09;6.07;;;1.90;;
38222;SDS011;24024;51.186;6.458;2023-07-13T00:05:40;6.43;;;1.60;;
38222;SDS011;24024;51.186;6.458;2023-07-13T00:08:07;5.07;;;1.40;;
38222;SDS011;24024;51.186;6.458;2023-07-13T00:10:41;5.90;;;1.20;;
38222;SDS011;24024;51.186;6.458;2023-07-13T00:13:08;4.10;;;1.17;;
38222;SDS011;24024;51.186;6.458;2023-07-13T00:15:39;7.07;;;2.20;;
38222;SDS011;24024;51.186;6.458;2023-07-13T00:18:06;7.45;;;1.10;;
38222;SDS011;24024;51.186;6.458;2023-07-13T00:20:36;6.40;;;1.95;;
38222;SDS011;24024;51.186;6.458;2023-07-13T00:23:02;4.35;;;1.30;;
38222;SDS011;24024;51.186;6.458;2023-07-13T00:25:29;6.03;;;1.48;;
38222;SDS011;24024;51.186;6.458;2023-07-13T00:27:56;5.38;;;1.27;;
38222;SDS011;24024;51.186;6.458;2023-07-13T00:30:25;4.45;;;1.30;;
38222;SDS011;24024;51.186;6.458;2023-07-13T00:32:54;6.30;;;1.77;;
38222;SDS011;24024;51.186;6.458;2023-07-13T00:35:44;10.40;;;3.33;;
38222;SDS011;24024;51.186;6.458;2023-07-13T00:38:11;6.85;;;1.80;;
38222;SDS011;24024;51.186;6.458;2023-07-13T00:40:38;7.38;;;1.42;;
38222;SDS011;24024;51.186;6.458;2023-07-13T00:43:09;6.72;;;1.60;;
38222;SDS011;24024;51.186;6.458;2023-07-13T00:48:13;7.35;;;1.63;;
38222;SDS011;24024;51.186;6.458;2023-07-13T00:50:44;7.07;;;1.60;;
38222;SDS011;24024;51.186;6.458;2023-07-13T00:53:16;5.57;;;1.50;;
38222;SDS011;24024;51.186;6.458;2023-07-13T00:55:48;6.22;;;1.30;;
38222;SDS011;24024;51.186;6.458;2023-07-13T00:58:16;4.50;;;1.30;;
38222;SDS011;24024;51.186;6.458;2023-07-13T01:00:43;5.45;;;1.30;;
38222;SDS011;24024;51.186;6.458;2023-07-13T01:03:11;5.13;;;1.50;;
38222;SDS011;24024;51.186;6.458;2023-07-13T01:05:40;5.63;;;1.42;;
38222;SDS011;24024;51.186;6.458;2023-07-13T01:08:12;5.68;;;1.58;;
38222;SDS011;24024;51.186;6.458;2023-07-13T01:10:39;5.82;;;1.30;;
38222;SDS011;24024;51.186;6.458;2023-07-13T01:13:16;6.05;;;1.25;;
38222;SDS011;24024;51.186;6.458;2023-07-13T01:15:46;5.50;;;1.70;;
38222;SDS011;24024;51.186;6.458;2023-07-13T01:18:33;4.38;;;1.17;;
38222;SDS011;24024;51.186;6.458;2023-07-13T01:21:00;4.07;;;1.40;;
38222;SDS011;24024;51.186;6.458;2023-07-13T01:23:30;4.05;;;1.30;;
38222;SDS011;24024;51.186;6.458;2023-07-13T01:25:57;5.50;;;1.50;;
38222;SDS011;24024;51.186;6.458;2023-07-13T01:28:25;7.00;;;1.35;;
38222;SDS011;24024;51.186;6.458;2023-07-13T01:30:55;6.38;;;1.48;;
38222;SDS011;24024;51.186;6.458;2023-07-13T01:33:26;6.00;;;1.80;;
38222;SDS011;24024;51.186;6.458;2023-07-13T01:35:53;9.02;;;1.88;;
38222;SDS011;24024;51.186;6.458;2023-07-13T01:38:21;5.13;;;1.45;;
38222;SDS011;24024;51.186;6.458;2023-07-13T01:40:49;5.78;;;1.42;;
38222;SDS011;24024;51.186;6.458;2023-07-13T01:43:19;4.68;;;1.40;;
38222;SDS011;24024;51.186;6.458;2023-07-13T01:45:46;4.65;;;1.30;;
38222;SDS011;24024;51.186;6.458;2023-07-13T01:48:12;5.47;;;1.58;;
38222;SDS011;24024;51.186;6.458;2023-07-13T01:50:40;5.40;;;1.45;;
38222;SDS011;24024;51.186;6.458;2023-07-13T01:53:09;4.38;;;1.38;;
38222;SDS011;24024;51.186;6.458;2023-07-13T01:55:36;6.85;;;1.20;;
38222;SDS011;24024;51.186;6.458;2023-07-13T01:58:03;4.75;;;1.42;;
38222;SDS011;24024;51.186;6.458;2023-07-13T02:00:30;5.78;;;1.50;;
38222;SDS011;24024;51.186;6.458;2023-07-13T02:02:59;5.97;;;1.63;;
38222;SDS011;24024;51.186;6.458;2023-07-13T02:05:26;7.00;;;1.83;;
38222;SDS011;24024;51.186;6.458;2023-07-13T02:07:53;4.03;;;1.20;;
38222;SDS011;24024;51.186;6.458;2023-07-13T02:10:24;4.72;;;1.40;;
38222;SDS011;24024;51.186;6.458;2023-07-13T02:12:51;5.85;;;1.80;;
38222;SDS011;24024;51.186;6.458;2023-07-13T02:15:24;6.32;;;1.60;;
38222;SDS011;24024;51.186;6.458;2023-07-13T02:17:50;5.55;;;1.45;;
38222;SDS011;24024;51.186;6.458;2023-07-13T02:20:20;7.25;;;1.50;;
38222;SDS011;24024;51.186;6.458;2023-07-13T02:22:47;6.72;;;1.30;;
38222;SDS011;24024;51.186;6.458;2023-07-13T02:25:17;9.30;;;1.45;;
38222;SDS011;24024;51.186;6.458;2023-07-13T02:27:48;7.35;;;1.40;;
38222;SDS011;24024;51.186;6.458;2023-07-13T02:30:15;5.90;;;1.50;;
38222;SDS011;24024;51.186;6.458;2023-07-13T02:32:42;6.57;;;1.20;;
38222;SDS011;24024;51.186;6.458;2023-07-13T02:35:10;7.15;;;1.52;;
38222;SDS011;24024;51.186;6.458;2023-07-13T02:37:38;3.13;;;1.20;;
38222;SDS011;24024;51.186;6.458;2023-07-13T02:40:05;7.85;;;1.45;;
38222;SDS011;24024;51.186;6.458;2023-07-13T02:42:35;7.38;;;1.45;;
38222;SDS011;24024;51.186;6.458;2023-07-13T02:45:05;5.10;;;1.40;;
38222;SDS011;24024;51.186;6.458;2023-07-13T02:47:33;8.23;;;1.58;;
38222;SDS011;24024;51.186;6.458;2023-07-13T02:50:02;8.55;;;1.60;;
38222;SDS011;24024;51.186;6.458;2023-07-13T02:52:31;5.20;;;1.40;;
38222;SDS011;24024;51.186;6.458;2023-07-13T02:54:58;6.68;;;1.55;;
38222;SDS011;24024;51.186;6.458;2023-07-13T02:57:25;8.52;;;1.70;;
38222;SDS011;24024;51.186;6.458;2023-07-13T02:59:53;6.22;;;1.35;;
38222;SDS011;24024;51.186;6.458;2023-07-13T03:02:20;5.85;;;1.40;;
38222;SDS011;24024;51.186;6.458;2023-07-13T03:04:46;8.30;;;1.40;;
38222;SDS011;24024;51.186;6.458;2023-07-13T03:07:13;8.15;;;1.70;;
38222;SDS011;24024;51.186;6.458;2023-07-13T03:09:41;8.82;;;1.60;;
38222;SDS011;24024;51.186;6.458;2023-07-13T03:12:08;4.65;;;1.27;;
38222;SDS011;24024;51.186;6.458;2023-07-13T03:14:37;8.65;;;1.35;;
38222;SDS011;24024;51.186;6.458;2023-07-13T03:17:04;8.88;;;1.80;;
38222;SDS011;24024;51.186;6.458;2023-07-13T03:19:33;7.47;;;1.65;;
38222;SDS011;24024;51.186;6.458;2023-07-13T03:22:00;6.07;;;1.38;;
38222;SDS011;24024;51.186;6.458;2023-07-13T03:24:27;5.35;;;1.60;;
38222;SDS011;24024;51.186;6.458;2023-07-13T03:26:56;8.60;;;1.58;;
38222;SDS011;24024;51.186;6.458;2023-07-13T03:29:27;5.18;;;1.45;;
38222;SDS011;24024;51.186;6.458;2023-07-13T03:31:54;6.60;;;1.55;;
38222;SDS011;24024;51.186;6.458;2023-07-13T03:34:21;8.32;;;1.80;;
38222;SDS011;24024;51.186;6.458;2023-07-13T03:36:53;8.95;;;2.00;;
38222;SDS011;24024;51.186;6.458;2023-07-13T03:39:23;8.00;;;1.80;;
38222;SDS011;24024;51.186;6.458;2023-07-13T03:41:50;8.90;;;2.17;;
38222;SDS011;24024;51.186;6.458;2023-07-13T03:44:19;6.22;;;1.80;;
38222;SDS011;24024;51.186;6.458;2023-07-13T03:46:46;7.53;;;2.28;;
38222;SDS011;24024;51.186;6.458;2023-07-13T03:49:13;7.55;;;2.15;;
38222;SDS011;24024;51.186;6.458;2023-07-13T03:51:49;8.20;;;1.95;;
38222;SDS011;24024;51.186;6.458;2023-07-13T03:54:19;7.18;;;1.70;;
38222;SDS011;24024;51.186;6.458;2023-07-13T03:56:46;6.57;;;1.60;;
38222;SDS011;24024;51.186;6.458;2023-07-13T03:59:15;8.43;;;1.90;;
38222;SDS011;24024;51.186;6.458;2023-07-13T04:01:44;5.50;;;1.30;;
38222;SDS011;24024;51.186;6.458;2023-07-13T04:04:14;7.88;;;1.85;;
38222;SDS011;24024;51.186;6.458;2023-07-13T04:06:42;5.63;;;1.42;;
38222;SDS011;24024;51.186;6.458;2023-07-13T04:09:08;9.05;;;2.10;;
38222;SDS011;24024;51.186;6.458;2023-07-13T04:11:35;6.70;;;1.80;;
38222;SDS011;24024;51.186;6.458;2023-07-13T04:14:02;7.18;;;1.90;;
38222;SDS011;24024;51.186;6.458;2023-07-13T04:16:30;8.30;;;1.98;;
38222;SDS011;24024;51.186;6.458;2023-07-13T04:18:59;9.60;;;2.00;;
38222;SDS011;24024;51.186;6.458;2023-07-13T04:21:27;6.75;;;1.80;;
38222;SDS011;24024;51.186;6.458;2023-07-13T04:23:56;8.40;;;1.90;;
38222;SDS011;24024;51.186;6.458;2023-07-13T04:26:23;10.07;;;2.38;;
38222;SDS011;24024;51.186;6.458;2023-07-13T04:28:50;9.27;;;2.17;;
38222;SDS011;24024;51.186;6.458;2023-07-13T04:31:20;8.30;;;1.98;;
38222;SDS011;24024;51.186;6.458;2023-07-13T04:33:48;7.35;;;2.10;;
38222;SDS011;24024;51.186;6.458;2023-07-13T04:36:16;9.07;;;1.80;;
38222;SDS011;24024;51.186;6.458;2023-07-13T04:38:45;6.68;;;1.83;;
38222;SDS011;24024;51.186;6.458;2023-07-13T04:41:13;6.10;;;1.67;;
38222;SDS011;24024;51.186;6.458;2023-07-13T04:43:42;5.78;;;2.03;;
38222;SDS011;24024;51.186;6.458;2023-07-13T04:46:12;8.85;;;1.90;;
38222;SDS011;24024;51.186;6.458;2023-07-13T04:48:48;5.38;;;1.60;;
38222;SDS011;24024;51.186;6.458;2023-07-13T04:51:17;6.65;;;2.00;;
38222;SDS011;24024;51.186;6.458;2023-07-13T04:53:44;7.07;;;1.75;;
38222;SDS011;24024;51.186;6.458;2023-07-13T04:56:11;7.70;;;2.80;;
38222;SDS011;24024;51.186;6.458;2023-07-13T04:58:38;6.72;;;2.10;;
38222;SDS011;24024;51.186;6.458;2023-07-13T05:01:07;8.63;;;2.05;;
38222;SDS011;24024;51.186;6.458;2023-07-13T05:03:36;9.90;;;2.00;;
38222;SDS011;24024;51.186;6.458;2023-07-13T05:06:06;8.63;;;2.55;;
38222;SDS011;24024;51.186;6.458;2023-07-13T05:08:36;10.98;;;2.63;;
38222;SDS011;24024;51.186;6.458;2023-07-13T05:11:08;6.40;;;2.20;;
38222;SDS011;24024;51.186;6.458;2023-07-13T05:13:35;10.02;;;2.00;;
38222;SDS011;24024;51.186;6.458;2023-07-13T05:16:03;8.63;;;2.58;;
38222;SDS011;24024;51.186;6.458;2023-07-13T05:18:34;13.55;;;3.53;;
38222;SDS011;24024;51.186;6.458;2023-07-13T05:21:09;11.25;;;2.45;;
38222;SDS011;24024;51.186;6.458;2023-07-13T05:23:39;9.88;;;2.40;;
38222;SDS011;24024;51.186;6.458;2023-07-13T05:26:08;12.45;;;2.20;;
38222;SDS011;24024;51.186;6.458;2023-07-13T05:28:35;9.25;;;2.40;;
38222;SDS011;24024;51.186;6.458;2023-07-13T05:31:08;8.70;;;2.10;;
38222;SDS011;24024;51.186;6.458;2023-07-13T05:33:37;8.20;;;1.98;;
38222;SDS011;24024;51.186;6.458;2023-07-13T05:36:04;9.15;;;2.30;;
38222;SDS011;24024;51.186;6.458;2023-07-13T05:38:31;9.55;;;2.10;;
38222;SDS011;24024;51.186;6.458;2023-07-13T05:41:00;10.52;;;2.78;;
38222;SDS011;24024;51.186;6.458;2023-07-13T05:43:31;7.10;;;2.20;;
38222;SDS011;24024;51.186;6.458;2023-07-13T05:45:58;9.38;;;2.25;;
38222;SDS011;24024;51.186;6.458;2023-07-13T05:48:25;5.75;;;2.10;;
38222;SDS011;24024;51.186;6.458;2023-07-13T05:50:57;7.53;;;2.30;;
38222;SDS011;24024;51.186;6.458;2023-07-13T05:53:26;6.80;;;2.20;;
38222;SDS011;24024;51.186;6.458;2023-07-13T05:55:55;7.30;;;2.30;;
38222;SDS011;24024;51.186;6.458;2023-07-13T05:58:25;8.15;;;2.42;;
38222;SDS011;24024;51.186;6.458;2023-07-13T06:01:02;10.02;;;2.53;;
38222;SDS011;24024;51.186;6.458;2023-07-13T06:03:33;7.75;;;2.55;;
38222;SDS011;24024;51.186;6.458;2023-07-13T06:06:02;11.57;;;3.00;;
38222;SDS011;24024;51.186;6.458;2023-07-13T06:08:31;11.85;;;2.70;;
38222;SDS011;24024;51.186;6.458;2023-07-13T06:11:06;7.75;;;2.58;;
38222;SDS011;24024;51.186;6.458;2023-07-13T06:13:42;12.70;;;2.80;;
38222;SDS011;24024;51.186;6.458;2023-07-13T06:16:11;16.15;;;3.00;;
38222;SDS011;24024;51.186;6.458;2023-07-13T06:18:47;10.10;;;2.53;;
38222;SDS011;24024;51.186;6.458;2023-07-13T06:21:15;11.85;;;3.35;;
38222;SDS011;24024;51.186;6.458;2023-07-13T06:23:44;9.05;;;2.80;;
38222;SDS011;24024;51.186;6.458;2023-07-13T06:26:14;10.27;;;2.75;;
38222;SDS011;24024;51.186;6.458;2023-07-13T06:28:44;11.93;;;2.88;;
38222;SDS011;24024;51.186;6.458;2023-07-13T06:31:11;7.25;;;2.67;;
38222;SDS011;24024;51.186;6.458;2023-07-13T06:33:40;14.48;;;3.60;;
38222;SDS011;24024;51.186;6.458;2023-07-13T06:36:09;9.25;;;2.75;;
38222;SDS011;24024;51.186;6.458;2023-07-13T06:38:38;12.07;;;2.92;;
38222;SDS011;24024;51.186;6.458;2023-07-13T06:41:07;8.85;;;3.00;;
38222;SDS011;24024;51.186;6.458;2023-07-13T06:43:35;12.85;;;3.15;;
38222;SDS011;24024;51.186;6.458;2023-07-13T06:46:02;10.90;;;3.63;;
38222;SDS011;24024;51.186;6.458;2023-07-13T06:48:32;8.45;;;2.95;;
38222;SDS011;24024;51.186;6.458;2023-07-13T06:51:01;11.15;;;3.22;;
38222;SDS011;24024;51.186;6.458;2023-07-13T06:53:31;10.05;;;2.95;;
38222;SDS011;24024;51.186;6.458;2023-07-13T06:56:00;11.70;;;2.83;;
38222;SDS011;24024;51.186;6.458;2023-07-13T06:58:27;9.02;;;3.00;;
38222;SDS011;24024;51.186;6.458;2023-07-13T07:00:56;8.95;;;2.80;;
38222;SDS011;24024;51.186;6.458;2023-07-13T07:03:23;11.55;;;3.40;;
38222;SDS011;24024;51.186;6.458;2023-07-13T07:05:50;10.32;;;2.90;;
38222;SDS011;24024;51.186;6.458;2023-07-13T07:08:17;12.68;;;3.17;;
38222;SDS011;24024;51.186;6.458;2023-07-13T07:10:46;10.65;;;2.85;;
38222;SDS011;24024;51.186;6.458;2023-07-13T07:13:20;11.35;;;2.95;;
38222;SDS011;24024;51.186;6.458;2023-07-13T07:15:49;8.00;;;2.80;;
38222;SDS011;24024;51.186;6.458;2023-07-13T07:18:17;12.65;;;3.20;;
38222;SDS011;24024;51.186;6.458;2023-07-13T07:20:46;11.90;;;3.33;;
38222;SDS011;24024;51.186;6.458;2023-07-13T07:23:15;8.43;;;2.90;;
38222;SDS011;24024;51.186;6.458;2023-07-13T07:25:43;12.85;;;3.70;;
38222;SDS011;24024;51.186;6.458;2023-07-13T07:28:15;10.30;;;2.88;;
38222;SDS011;24024;51.186;6.458;2023-07-13T07:30:49;12.15;;;3.08;;
38222;SDS011;24024;51.186;6.458;2023-07-13T07:33:22;10.82;;;2.97;;
38222;SDS011;24024;51.186;6.458;2023-07-13T07:35:49;10.95;;;2.60;;
38222;SDS011;24024;51.186;6.458;2023-07-13T07:38:19;13.52;;;2.78;;
38222;SDS011;24024;51.186;6.458;2023-07-13T07:40:49;12.27;;;3.00;;
38222;SDS011;24024;51.186;6.458;2023-07-13T07:43:22;10.88;;;2.97;;
38222;SDS011;24024;51.186;6.458;2023-07-13T07:45:49;13.40;;;3.50;;
38222;SDS011;24024;51.186;6.458;2023-07-13T07:48:18;8.98;;;2.83;;
38222;SDS011;24024;51.186;6.458;2023-07-13T07:50:45;8.45;;;2.78;;
38222;SDS011;24024;51.186;6.458;2023-07-13T07:53:14;11.70;;;3.35;;
38222;SDS011;24024;51.186;6.458;2023-07-13T07:55:43;11.20;;;3.22;;
38222;SDS011;24024;51.186;6.458;2023-07-13T07:58:16;14.05;;;3.58;;
38222;SDS011;24024;51.186;6.458;2023-07-13T08:01:04;11.68;;;3.00;;
38222;SDS011;24024;51.186;6.458;2023-07-13T08:03:35;11.95;;;3.30;;
38222;SDS011;24024;51.186;6.458;2023-07-13T08:06:07;12.48;;;3.40;;
38222;SDS011;24024;51.186;6.458;2023-07-13T08:08:56;10.80;;;2.97;;
38222;SDS011;24024;51.186;6.458;2023-07-13T08:11:25;11.20;;;3.40;;
38222;SDS011;24024;51.186;6.458;2023-07-13T08:13:54;12.57;;;3.35;;
38222;SDS011;24024;51.186;6.458;2023-07-13T08:16:26;14.30;;;3.10;;
38222;SDS011;24024;51.186;6.458;2023-07-13T08:18:53;11.55;;;3.15;;
38222;SDS011;24024;51.186;6.458;2023-07-13T08:21:20;12.65;;;3.33;;
38222;SDS011;24024;51.186;6.458;2023-07-13T08:23:49;13.15;;;3.30;;
38222;SDS011;24024;51.186;6.458;2023-07-13T08:26:16;13.20;;;3.83;;
38222;SDS011;24024;51.186;6.458;2023-07-13T08:28:43;14.25;;;3.40;;
38222;SDS011;24024;51.186;6.458;2023-07-13T08:31:12;10.73;;;3.53;;
38222;SDS011;24024;51.186;6.458;2023-07-13T08:33:40;15.70;;;5.70;;
38222;SDS011;24024;51.186;6.458;2023-07-13T08:36:09;13.50;;;4.28;;
38222;SDS011;24024;51.186;6.458;2023-07-13T08:38:41;11.48;;;2.90;;
38222;SDS011;24024;51.186;6.458;2023-07-13T08:41:17;11.73;;;3.40;;
38222;SDS011;24024;51.186;6.458;2023-07-13T08:43:46;12.80;;;3.42;;
38222;SDS011;24024;51.186;6.458;2023-07-13T08:46:21;14.50;;;3.55;;
38222;SDS011;24024;51.186;6.458;2023-07-13T08:48:58;14.15;;;3.35;;
38222;SDS011;24024;51.186;6.458;2023-07-13T08:54:01;11.90;;;2.97;;
38222;SDS011;24024;51.186;6.458;2023-07-13T08:56:31;8.55;;;2.67;;
38222;SDS011;24024;51.186;6.458;2023-07-13T08:59:06;9.82;;;3.22;;
38222;SDS011;24024;51.186;6.458;2023-07-13T09:09:35;12.40;;;2.67;;
38222;SDS011;24024;51.186;6.458;2023-07-13T09:15:18;10.95;;;2.63;;
38222;SDS011;24024;51.186;6.458;2023-07-13T09:17:59;8.75;;;2.60;;
38222;SDS011;24024;51.186;6.458;2023-07-13T09:20:37;9.35;;;2.72;;
38222;SDS011;24024;51.186;6.458;2023-07-13T09:23:10;9.98;;;3.00;;
38222;SDS011;24024;51.186;6.458;2023-07-13T09:25:41;8.68;;;2.55;;
38222;SDS011;24024;51.186;6.458;2023-07-13T09:28:18;8.45;;;2.63;;
38222;SDS011;24024;51.186;6.458;2023-07-13T09:30:54;9.93;;;2.40;;
38222;SDS011;24024;51.186;6.458;2023-07-13T09:33:41;8.25;;;2.33;;
38222;SDS011;24024;51.186;6.458;2023-07-13T09:36:16;11.77;;;2.30;;
38222;SDS011;24024;51.186;6.458;2023-07-13T09:38:45;9.48;;;2.45;;
38222;SDS011;24024;51.186;6.458;2023-07-13T09:41:18;8.85;;;2.33;;
38222;SDS011;24024;51.186;6.458;2023-07-13T09:46:47;7.43;;;2.10;;
38222;SDS011;24024;51.186;6.458;2023-07-13T09:49:26;10.70;;;2.58;;
38222;SDS011;24024;51.186;6.458;2023-07-13T09:52:09;7.82;;;2.65;;
38222;SDS011;24024;51.186;6.458;2023-07-13T09:54:37;8.10;;;2.30;;
38222;SDS011;24024;51.186;6.458;2023-07-13T09:57:14;10.93;;;2.50;;
38222;SDS011;24024;51.186;6.458;2023-07-13T09:59:44;11.15;;;3.08;;
38222;SDS011;24024;51.186;6.458;2023-07-13T10:05:03;10.90;;;2.42;;
38222;SDS011;24024;51.186;6.458;2023-07-13T10:07:37;9.53;;;2.20;;
38222;SDS011;24024;51.186;6.458;2023-07-13T10:10:21;13.02;;;2.67;;
38222;SDS011;24024;51.186;6.458;2023-07-13T10:12:50;8.93;;;2.38;;
38222;SDS011;24024;51.186;6.458;2023-07-13T10:15:23;7.60;;;2.42;;
38222;SDS011;24024;51.186;6.458;2023-07-13T10:17:52;8.85;;;2.63;;
38222;SDS011;24024;51.186;6.458;2023-07-13T10:20:24;9.15;;;2.20;;
38222;SDS011;24024;51.186;6.458;2023-07-13T10:23:02;9.68;;;2.08;;
38222;SDS011;24024;51.186;6.458;2023-07-13T10:25:34;6.30;;;2.20;;
38222;SDS011;24024;51.186;6.458;2023-07-13T10:28:11;6.90;;;2.00;;
38222;SDS011;24024;51.186;6.458;2023-07-13T10:30:52;5.88;;;1.90;;
38222;SDS011;24024;51.186;6.458;2023-07-13T10:33:23;7.63;;;2.13;;
38222;SDS011;24024;51.186;6.458;2023-07-13T10:35:55;7.88;;;2.28;;
38222;SDS011;24024;51.186;6.458;2023-07-13T10:38:42;8.10;;;2.13;;
38222;SDS011;24024;51.186;6.458;2023-07-13T10:41:15;7.03;;;1.95;;
38222;SDS011;24024;51.186;6.458;2023-07-13T10:43:46;8.27;;;2.10;;
38222;SDS011;24024;51.186;6.458;2023-07-13T10:46:17;8.40;;;3.38;;
38222;SDS011;24024;51.186;6.458;2023-07-13T10:48:49;7.47;;;2.13;;
38222;SDS011;24024;51.186;6.458;2023-07-13T10:51:24;7.28;;;1.90;;
38222;SDS011;24024;51.186;6.458;2023-07-13T10:59:39;6.97;;;2.20;;
38222;SDS011;24024;51.186;6.458;2023-07-13T11:02:27;8.48;;;2.35;;
38222;SDS011;24024;51.186;6.458;2023-07-13T11:04:55;5.88;;;1.90;;
38222;SDS011;24024;51.186;6.458;2023-07-13T11:07:31;8.73;;;2.65;;
38222;SDS011;24024;51.186;6.458;2023-07-13T11:18:51;5.55;;;2.30;;
38222;SDS011;24024;51.186;6.458;2023-07-13T11:21:41;6.18;;;2.22;;
38222;SDS011;24024;51.186;6.458;2023-07-13T11:24:29;12.23;;;2.97;;
38222;SDS011;24024;51.186;6.458;2023-07-13T11:30:21;10.10;;;2.63;;
38222;SDS011;24024;51.186;6.458;2023-07-13T11:33:09;7.22;;;1.63;;
38222;SDS011;24024;51.186;6.458;2023-07-13T11:35:46;5.07;;;1.60;;
38222;SDS011;24024;51.186;6.458;2023-07-13T11:38:17;5.90;;;1.98;;
38222;SDS011;24024;51.186;6.458;2023-07-13T11:40:47;7.40;;;2.15;;
38222;SDS011;24024;51.186;6.458;2023-07-13T11:43:21;4.07;;;1.70;;
38222;SDS011;24024;51.186;6.458;2023-07-13T11:45:52;4.72;;;1.90;;
38222;SDS011;24024;51.186;6.458;2023-07-13T11:48:20;5.38;;;1.60;;
38222;SDS011;24024;51.186;6.458;2023-07-13T11:51:05;8.18;;;1.77;;
38222;SDS011;24024;51.186;6.458;2023-07-13T11:53:43;6.30;;;1.60;;
38222;SDS011;24024;51.186;6.458;2023-07-13T11:56:12;4.95;;;1.63;;
38222;SDS011;24024;51.186;6.458;2023-07-13T11:58:39;6.25;;;1.98;;
38222;SDS011;24024;51.186;6.458;2023-07-13T12:01:14;7.40;;;1.98;;
38222;SDS011;24024;51.186;6.458;2023-07-13T12:03:53;6.53;;;1.65;;
38222;SDS011;24024;51.186;6.458;2023-07-13T12:06:25;5.90;;;1.77;;
38222;SDS011;24024;51.186;6.458;2023-07-13T12:09:00;6.40;;;1.83;;
38222;SDS011;24024;51.186;6.458;2023-07-13T12:11:34;7.90;;;2.50;;
38222;SDS011;24024;51.186;6.458;2023-07-13T12:14:12;5.53;;;1.70;;
38222;SDS011;24024;51.186;6.458;2023-07-13T12:16:41;4.43;;;1.52;;
38222;SDS011;24024;51.186;6.458;2023-07-13T12:19:18;6.80;;;1.52;;
38222;SDS011;24024;51.186;6.458;2023-07-13T12:21:53;7.85;;;1.60;;
38222;SDS011;24024;51.186;6.458;2023-07-13T12:24:26;6.47;;;1.60;;
38222;SDS011;24024;51.186;6.458;2023-07-13T12:27:01;5.00;;;1.70;;
38222;SDS011;24024;51.186;6.458;2023-07-13T12:29:35;4.85;;;1.25;;
38222;SDS011;24024;51.186;6.458;2023-07-13T12:32:07;4.25;;;1.40;;
38222;SDS011;24024;51.186;6.458;2023-07-13T12:34:49;5.70;;;1.60;;
38222;SDS011;24024;51.186;6.458;2023-07-13T12:37:20;7.20;;;2.00;;
38222;SDS011;24024;51.186;6.458;2023-07-13T12:39:47;5.57;;;1.50;;
38222;SDS011;24024;51.186;6.458;2023-07-13T12:42:28;6.05;;;1.40;;
38222;SDS011;24024;51.186;6.458;2023-07-13T12:45:01;6.13;;;1.48;;
38222;SDS011;24024;51.186;6.458;2023-07-13T12:47:40;4.43;;;1.17;;
38222;SDS011;24024;51.186;6.458;2023-07-13T12:50:14;4.97;;;1.25;;
38222;SDS011;24024;51.186;6.458;2023-07-13T12:52:43;4.75;;;1.42;;
38222;SDS011;24024;51.186;6.458;2023-07-13T12:57:54;5.15;;;1.25;;
38222;SDS011;24024;51.186;6.458;2023-07-13T13:00:31;4.63;;;1.60;;
38222;SDS011;24024;51.186;6.458;2023-07-13T13:03:07;5.25;;;1.50;;
38222;SDS011;24024;51.186;6.458;2023-07-13T13:08:36;4.75;;;1.73;;
38222;SDS011;24024;51.186;6.458;2023-07-13T13:11:03;8.82;;;1.80;;
38222;SDS011;24024;51.186;6.458;2023-07-13T13:13:32;4.65;;;1.90;;
38222;SDS011;24024;51.186;6.458;2023-07-13T13:16:02;4.50;;;1.70;;
38222;SDS011;24024;51.186;6.458;2023-07-13T13:18:35;5.13;;;1.40;;
38222;SDS011;24024;51.186;6.458;2023-07-13T13:21:04;7.85;;;1.80;;
38222;SDS011;24024;51.186;6.458;2023-07-13T13:23:35;5.40;;;1.60;;
38222;SDS011;24024;51.186;6.458;2023-07-13T13:26:02;5.03;;;1.40;;
38222;SDS011;24024;51.186;6.458;2023-07-13T13:28:31;6.22;;;1.73;;
38222;SDS011;24024;51.186;6.458;2023-07-13T13:30:58;4.50;;;1.50;;
38222;SDS011;24024;51.186;6.458;2023-07-13T13:33:27;5.00;;;1.40;;
38222;SDS011;24024;51.186;6.458;2023-07-13T13:35:54;5.70;;;1.73;;
38222;SDS011;24024;51.186;6.458;2023-07-13T13:38:24;4.55;;;1.40;;
38222;SDS011;24024;51.186;6.458;2023-07-13T13:40:53;6.55;;;1.50;;
38222;SDS011;24024;51.186;6.458;2023-07-13T13:43:26;7.93;;;1.63;;
38222;SDS011;24024;51.186;6.458;2023-07-13T13:45:54;4.20;;;1.85;;
38222;SDS011;24024;51.186;6.458;2023-07-13T13:51:00;9.35;;;2.10;;
38222;SDS011;24024;51.186;6.458;2023-07-13T13:53:32;7.20;;;2.10;;
38222;SDS011;24024;51.186;6.458;2023-07-13T13:56:01;5.80;;;1.70;;
38222;SDS011;24024;51.186;6.458;2023-07-13T13:58:30;8.60;;;1.70;;
38222;SDS011;24024;51.186;6.458;2023-07-13T14:00:57;5.00;;;1.60;;
38222;SDS011;24024;51.186;6.458;2023-07-13T14:03:26;3.90;;;1.40;;
38222;SDS011;24024;51.186;6.458;2023-07-13T14:05:58;4.45;;;1.67;;
38222;SDS011;24024;51.186;6.458;2023-07-13T14:08:25;4.80;;;1.52;;
38222;SDS011;24024;51.186;6.458;2023-07-13T14:10:53;5.53;;;1.58;;
38222;SDS011;24024;51.186;6.458;2023-07-13T14:13:27;4.85;;;1.58;;
38222;SDS011;24024;51.186;6.458;2023-07-13T14:15:57;5.03;;;1.60;;
38222;SDS011;24024;51.186;6.458;2023-07-13T14:18:25;6.93;;;1.70;;
38222;SDS011;24024;51.186;6.458;2023-07-13T14:20:54;6.47;;;1.63;;
38222;SDS011;24024;51.186;6.458;2023-07-13T14:23:21;6.20;;;1.50;;
38222;SDS011;24024;51.186;6.458;2023-07-13T14:25:50;7.90;;;1.67;;
38222;SDS011;24024;51.186;6.458;2023-07-13T14:28:19;7.28;;;1.90;;
38222;SDS011;24024;51.186;6.458;2023-07-13T14:30:53;4.25;;;1.40;;
38222;SDS011;24024;51.186;6.458;2023-07-13T14:33:21;5.47;;;1.67;;
38222;SDS011;24024;51.186;6.458;2023-07-13T14:35:49;4.95;;;1.50;;
38222;SDS011;24024;51.186;6.458;2023-07-13T14:38:18;9.50;;;2.15;;
38222;SDS011;24024;51.186;6.458;2023-07-13T14:40:46;9.00;;;1.92;;
38222;SDS011;24024;51.186;6.458;2023-07-13T14:43:13;7.15;;;1.83;;
38222;SDS011;24024;51.186;6.458;2023-07-13T14:45:42;21.30;;;3.50;;
38222;SDS011;24024;51.186;6.458;2023-07-13T14:48:16;5.10;;;1.80;;
38222;SDS011;24024;51.186;6.458;2023-07-13T14:50:54;14.70;;;2.00;;
38222;SDS011;24024;51.186;6.458;2023-07-13T14:53:24;6.07;;;1.42;;
38222;SDS011;24024;51.186;6.458;2023-07-13T14:55:57;5.03;;;1.73;;
38222;SDS011;24024;51.186;6.458;2023-07-13T14:58:28;6.43;;;1.70;;
38222;SDS011;24024;51.186;6.458;2023-07-13T15:00:58;5.28;;;1.90;;
38222;SDS011;24024;51.186;6.458;2023-07-13T15:03:27;5.55;;;1.77;;
38222;SDS011;24024;51.186;6.458;2023-07-13T15:05:54;4.75;;;1.90;;
38222;SDS011;24024;51.186;6.458;2023-07-13T15:08:23;6.18;;;1.80;;
38222;SDS011;24024;51.186;6.458;2023-07-13T15:10:55;6.10;;;1.90;;
38222;SDS011;24024;51.186;6.458;2023-07-13T15:13:28;5.15;;;2.17;;
38222;SDS011;24024;51.186;6.458;2023-07-13T15:16:00;8.65;;;2.35;;
38222;SDS011;24024;51.186;6.458;2023-07-13T15:18:28;10.45;;;2.13;;
38222;SDS011;24024;51.186;6.458;2023-07-13T15:20:55;6.72;;;2.00;;
38222;SDS011;24024;51.186;6.458;2023-07-13T15:23:31;7.18;;;2.00;;
38222;SDS011;24024;51.186;6.458;2023-07-13T15:25:58;8.13;;;2.25;;
38222;SDS011;24024;51.186;6.458;2023-07-13T15:28:25;7.07;;;2.22;;
38222;SDS011;24024;51.186;6.458;2023-07-13T15:30:52;7.15;;;2.50;;
38222;SDS011;24024;51.186;6.458;2023-07-13T15:33:23;5.00;;;1.90;;
38222;SDS011;24024;51.186;6.458;2023-07-13T15:35:55;6.00;;;1.67;;
38222;SDS011;24024;51.186;6.458;2023-07-13T15:38:25;7.47;;;2.40;;
38222;SDS011;24024;51.186;6.458;2023-07-13T15:40:56;4.97;;;1.88;;
38222;SDS011;24024;51.186;6.458;2023-07-13T15:43:26;5.53;;;1.90;;
38222;SDS011;24024;51.186;6.458;2023-07-13T15:45:58;4.95;;;2.28;;
38222;SDS011;24024;51.186;6.458;2023-07-13T15:48:27;4.70;;;1.77;;
38222;SDS011;24024;51.186;6.458;2023-07-13T15:50:54;6.43;;;1.70;;
38222;SDS011;24024;51.186;6.458;2023-07-13T15:53:29;4.13;;;1.50;;